sensor_id;sensor_type;location;lat;lon;timestamp;pressure;altitude;pressure_sealevel;temperature;humidity
6030;BME280;3043;42.682;23.376;2023-02-18T00:01:15;95690.00;;;5.45;100.00
6030;BME280;3043;42.682;23.376;2023-02-18T00:03:41;95690.00;;;5.42;100.00
6030;BME280;3043;42.682;23.376;2023-02-18T00:06:27;95686.53;;;5.34;100.00
6030;BME280;3043;42.682;23.376;2023-02-18T00:08:53;95690.75;;;5.25;100.00
6030;BME280;3043;42.682;23.376;2023-02-18T00:11:21;95685.59;;;5.20;100.00
6030;BME280;3043;42.682;23.376;2023-02-18T00:13:51;95676.97;;;5.11;100.00
6030;BME280;3043;42.682;23.376;2023-02-18T00:16:17;95682.91;;;5.05;100.00
6030;BME280;3043;42.682;23.376;2023-02-18T00:18:42;95672.63;;;5.02;100.00
6030;BME280;3043;42.682;23.376;2023-02-18T00:21:07;95668.31;;;4.98;100.00
6030;BME280;3043;42.682;23.376;2023-02-18T00:23:33;95665.78;;;5.04;100.00
6030;BME280;3043;42.682;23.376;2023-02-18T00:28:29;95648.72;;;5.09;100.00
6030;BME280;3043;42.682;23.376;2023-02-18T00:30:55;95651.28;;;5.09;100.00
6030;BME280;3043;42.682;23.376;2023-02-18T00:33:20;95646.22;;;5.18;100.00
6030;BME280;3043;42.682;23.376;2023-02-18T00:35:46;95641.94;;;5.17;100.00
6030;BME280;3043;42.682;23.376;2023-02-18T00:38:11;95643.72;;;5.27;100.00
6030;BME280;3043;42.682;23.376;2023-02-18T00:40:38;95629.19;;;5.32;100.00
6030;BME280;3043;42.682;23.376;2023-02-18T00:43:03;95632.59;;;5.24;100.00
6030;BME280;3043;42.682;23.376;2023-02-18T00:45:29;95632.66;;;5.36;100.00
6030;BME280;3043;42.682;23.376;2023-02-18T00:47:54;95630.06;;;5.34;100.00
6030;BME280;3043;42.682;23.376;2023-02-18T00:50:20;95631.78;;;5.35;100.00
6030;BME280;3043;42.682;23.376;2023-02-18T00:52:45;95623.28;;;5.45;100.00
6030;BME280;3043;42.682;23.376;2023-02-18T00:55:11;95633.53;;;5.42;100.00
6030;BME280;3043;42.682;23.376;2023-02-18T00:57:36;95631.78;;;5.35;100.00
6030;BME280;3043;42.682;23.376;2023-02-18T01:00:04;95638.56;;;5.24;100.00
6030;BME280;3043;42.682;23.376;2023-02-18T01:02:30;95638.41;;;5.00;100.00
6030;BME280;3043;42.682;23.376;2023-02-18T01:04:55;95634.88;;;4.86;100.00
6030;BME280;3043;42.682;23.376;2023-02-18T01:07:21;95642.47;;;4.71;100.00
6030;BME280;3043;42.682;23.376;2023-02-18T01:09:46;95637.25;;;4.61;100.00
6030;BME280;3043;42.682;23.376;2023-02-18T01:12:11;95632.03;;;4.52;100.00
6030;BME280;3043;42.682;23.376;2023-02-18T01:14:37;95627.75;;;4.49;100.00
6030;BME280;3043;42.682;23.376;2023-02-18T01:17:02;95630.38;;;4.54;100.00
6030;BME280;3043;42.682;23.376;2023-02-18T01:19:28;95631.19;;;4.51;100.00
6030;BME280;3043;42.682;23.376;2023-02-18T01:21:53;95627.78;;;4.52;100.00
6030;BME280;3043;42.682;23.376;2023-02-18T01:24:19;95634.59;;;4.50;100.00
6030;BME280;3043;42.682;23.376;2023-02-18T01:26:44;95637.88;;;4.34;100.00
6030;BME280;3043;42.682;23.376;2023-02-18T01:29:09;95630.22;;;4.39;100.00
6030;BME280;3043;42.682;23.376;2023-02-18T01:31:35;95627.66;;;4.37;100.00
6030;BME280;3043;42.682;23.376;2023-02-18T01:34:00;95625.91;;;4.36;100.00
6030;BME280;3043;42.682;23.376;2023-02-18T01:36:26;95625.88;;;4.30;100.00
6030;BME280;3043;42.682;23.376;2023-02-18T01:38:51;95612.16;;;4.22;100.00
6030;BME280;3043;42.682;23.376;2023-02-18T01:41:18;95622.38;;;4.19;100.00
6030;BME280;3043;42.682;23.376;2023-02-18T01:43:44;95624.00;;;4.11;100.00
6030;BME280;3043;42.682;23.376;2023-02-18T01:46:20;95627.16;;;3.89;100.00
6030;BME280;3043;42.682;23.376;2023-02-18T01:48:57;95635.75;;;3.94;100.00
6030;BME280;3043;42.682;23.376;2023-02-18T01:54:05;95644.03;;;3.69;100.00
6030;BME280;3043;42.682;23.376;2023-02-18T01:56:38;95640.47;;;3.58;100.00
6030;BME280;3043;42.682;23.376;2023-02-18T01:59:09;95650.59;;;3.49;100.00
6030;BME280;3043;42.682;23.376;2023-02-18T02:01:36;95647.06;;;3.41;100.00
6030;BME280;3043;42.682;23.376;2023-02-18T02:04:02;95642.66;;;3.29;100.00
6030;BME280;3043;42.682;23.376;2023-02-18T02:06:27;95638.09;;;3.09;100.00
6030;BME280;3043;42.682;23.376;2023-02-18T02:08:56;95632.34;;;3.23;100.00
6030;BME280;3043;42.682;23.376;2023-02-18T02:39:01;95615.09;;;3.79;100.00
6030;BME280;3043;42.682;23.376;2023-02-18T02:41:53;95615.19;;;3.88;100.00
6030;BME280;3043;42.682;23.376;2023-02-18T02:44:37;95613.69;;;4.05;100.00
6030;BME280;3043;42.682;23.376;2023-02-18T02:47:10;95607.72;;;4.09;100.00
6030;BME280;3043;42.682;23.376;2023-02-18T02:52:33;95608.63;;;4.11;100.00
6030;BME280;3043;42.682;23.376;2023-02-18T02:55:04;95612.84;;;4.09;100.00
6030;BME280;3043;42.682;23.376;2023-02-18T02:59:59;95623.34;;;4.33;100.00
6030;BME280;3043;42.682;23.376;2023-02-18T03:02:49;95635.44;;;4.49;100.00
6030;BME280;3043;42.682;23.376;2023-02-18T03:11:00;95629.59;;;4.65;100.00
6030;BME280;3043;42.682;23.376;2023-02-18T03:16:00;95624.44;;;4.62;100.00
6030;BME280;3043;42.682;23.376;2023-02-18T03:23:35;95636.03;;;4.21;100.00
6030;BME280;3043;42.682;23.376;2023-02-18T03:26:03;95649.78;;;4.29;100.00
6030;BME280;3043;42.682;23.376;2023-02-18T03:28:30;95656.38;;;4.06;100.00
6030;BME280;3043;42.682;23.376;2023-02-18T03:31:10;95663.09;;;3.98;100.00
6030;BME280;3043;42.682;23.376;2023-02-18T03:33:42;95664.50;;;3.69;100.00
6030;BME280;3043;42.682;23.376;2023-02-18T03:36:09;95671.28;;;3.65;100.00
6030;BME280;3043;42.682;23.376;2023-02-18T03:38:39;95672.06;;;3.60;100.00
6030;BME280;3043;42.682;23.376;2023-02-18T03:41:06;95656.81;;;3.69;100.00
6030;BME280;3043;42.682;23.376;2023-02-18T03:43:32;95671.22;;;3.61;100.00
6030;BME280;3043;42.682;23.376;2023-02-18T03:45:58;95674.72;;;3.67;100.00
6030;BME280;3043;42.682;23.376;2023-02-18T03:48:25;95673.84;;;3.67;100.00
6030;BME280;3043;42.682;23.376;2023-02-18T03:50:50;95683.19;;;3.65;100.00
6030;BME280;3043;42.682;23.376;2023-02-18T03:53:16;95684.19;;;3.76;100.00
6030;BME280;3043;42.682;23.376;2023-02-18T03:55:41;95680.84;;;3.82;100.00
6030;BME280;3043;42.682;23.376;2023-02-18T03:58:07;95678.16;;;3.71;100.00
6030;BME280;3043;42.682;23.376;2023-02-18T04:00:33;95680.72;;;3.71;100.00
6030;BME280;3043;42.682;23.376;2023-02-18T04:02:58;95677.28;;;3.67;100.00
6030;BME280;3043;42.682;23.376;2023-02-18T04:05:24;95679.56;;;3.48;100.00
6030;BME280;3043;42.682;23.376;2023-02-18T04:07:49;95670.97;;;3.43;100.00
6030;BME280;3043;42.682;23.376;2023-02-18T04:10:15;95670.81;;;3.31;100.00
6030;BME280;3043;42.682;23.376;2023-02-18T04:12:40;95668.22;;;3.28;100.00
6030;BME280;3043;42.682;23.376;2023-02-18T04:15:06;95664.13;;;3.42;100.00
6030;BME280;3043;42.682;23.376;2023-02-18T04:17:32;95665.78;;;3.37;100.00
6030;BME280;3043;42.682;23.376;2023-02-18T04:19:57;95663.22;;;3.37;100.00
6030;BME280;3043;42.682;23.376;2023-02-18T04:22:23;95660.97;;;3.61;100.00
6030;BME280;3043;42.682;23.376;2023-02-18T04:24:48;95654.88;;;3.53;100.00
6030;BME280;3043;42.682;23.376;2023-02-18T04:27:14;95650.75;;;3.61;100.00
6030;BME280;3043;42.682;23.376;2023-02-18T04:29:39;95648.38;;;3.78;100.00
6030;BME280;3043;42.682;23.376;2023-02-18T04:32:04;95637.44;;;3.92;100.00
6030;BME280;3043;42.682;23.376;2023-02-18T04:34:30;95649.34;;;3.87;100.00
6030;BME280;3043;42.682;23.376;2023-02-18T04:36:55;95649.53;;;4.05;100.00
6030;BME280;3043;42.682;23.376;2023-02-18T04:39:22;95641.03;;;4.09;100.00
6030;BME280;3043;42.682;23.376;2023-02-18T04:41:47;95650.38;;;4.06;100.00
6030;BME280;3043;42.682;23.376;2023-02-18T04:44:12;95646.16;;;4.09;100.00
6030;BME280;3043;42.682;23.376;2023-02-18T04:46:38;95657.31;;;4.13;100.00
6030;BME280;3043;42.682;23.376;2023-02-18T04:49:03;95656.41;;;4.09;100.00
6030;BME280;3043;42.682;23.376;2023-02-18T04:51:29;95651.22;;;4.03;100.00
6030;BME280;3043;42.682;23.376;2023-02-18T04:53:54;95652.94;;;4.04;100.00
6030;BME280;3043;42.682;23.376;2023-02-18T04:56:19;95659.81;;;4.08;100.00
6030;BME280;3043;42.682;23.376;2023-02-18T04:58:45;95653.47;;;3.76;100.00
6030;BME280;3043;42.682;23.376;2023-02-18T05:01:11;95662.78;;;3.71;100.00
6030;BME280;3043;42.682;23.376;2023-02-18T05:03:37;95658.63;;;3.78;100.00
6030;BME280;3043;42.682;23.376;2023-02-18T05:06:02;95665.47;;;3.80;100.00
6030;BME280;3043;42.682;23.376;2023-02-18T05:08:28;95675.84;;;3.92;100.00
6030;BME280;3043;42.682;23.376;2023-02-18T05:10:53;95666.44;;;3.91;100.00
6030;BME280;3043;42.682;23.376;2023-02-18T05:13:19;95656.34;;;4.03;100.00
6030;BME280;3043;42.682;23.376;2023-02-18T05:15:47;95649.63;;;4.14;100.00
6030;BME280;3043;42.682;23.376;2023-02-18T05:18:12;95641.09;;;4.15;100.00
6030;BME280;3043;42.682;23.376;2023-02-18T05:20:38;95655.63;;;4.16;100.00
6030;BME280;3043;42.682;23.376;2023-02-18T05:23:03;95641.16;;;4.21;100.00
6030;BME280;3043;42.682;23.376;2023-02-18T05:25:28;95635.94;;;4.12;100.00
6030;BME280;3043;42.682;23.376;2023-02-18T05:27:54;95635.09;;;4.12;100.00
6030;BME280;3043;42.682;23.376;2023-02-18T05:30:19;95656.28;;;3.97;100.00
6030;BME280;3043;42.682;23.376;2023-02-18T05:32:45;95660.38;;;3.83;100.00
6030;BME280;3043;42.682;23.376;2023-02-18T05:35:10;95655.28;;;3.85;100.00
6030;BME280;3043;42.682;23.376;2023-02-18T05:37:35;95660.22;;;3.69;100.00
6030;BME280;3043;42.682;23.376;2023-02-18T05:40:01;95678.69;;;4.16;100.00
6030;BME280;3043;42.682;23.376;2023-02-18T05:42:27;95664.72;;;3.87;100.00
6030;BME280;3043;42.682;23.376;2023-02-18T05:44:53;95661.41;;;3.97;100.00
6030;BME280;3043;42.682;23.376;2023-02-18T05:47:18;95657.16;;;3.99;100.00
6030;BME280;3043;42.682;23.376;2023-02-18T05:49:43;95656.38;;;4.08;100.00
6030;BME280;3043;42.682;23.376;2023-02-18T05:52:10;95660.78;;;4.19;100.00
6030;BME280;3043;42.682;23.376;2023-02-18T05:54:37;95668.59;;;4.31;100.00
6030;BME280;3043;42.682;23.376;2023-02-18T05:57:03;95677.28;;;4.48;100.00
6030;BME280;3043;42.682;23.376;2023-02-18T05:59:28;95674.13;;;4.76;100.00
6030;BME280;3043;42.682;23.376;2023-02-18T06:01:54;95672.50;;;4.84;100.00
6030;BME280;3043;42.682;23.376;2023-02-18T06:04:20;95676.09;;;5.10;100.00
6030;BME280;3043;42.682;23.376;2023-02-18T06:06:45;95673.63;;;5.19;100.00
6030;BME280;3043;42.682;23.376;2023-02-18T06:09:11;95666.00;;;5.31;100.00
6030;BME280;3043;42.682;23.376;2023-02-18T06:11:37;95666.06;;;5.42;100.00
6030;BME280;3043;42.682;23.376;2023-02-18T06:14:03;95666.06;;;5.43;100.00
6030;BME280;3043;42.682;23.376;2023-02-18T06:16:29;95664.44;;;5.64;100.00
6030;BME280;3043;42.682;23.376;2023-02-18T06:18:54;95666.19;;;5.68;100.00
6030;BME280;3043;42.682;23.376;2023-02-18T06:21:19;95652.56;;;5.84;100.00
6030;BME280;3043;42.682;23.376;2023-02-18T06:23:45;95659.47;;;5.91;100.00
6030;BME280;3043;42.682;23.376;2023-02-18T06:26:10;95650.94;;;6.07;100.00
6030;BME280;3043;42.682;23.376;2023-02-18T06:28:36;95658.72;;;6.31;100.00
6030;BME280;3043;42.682;23.376;2023-02-18T06:31:02;95660.47;;;6.33;100.00
6030;BME280;3043;42.682;23.376;2023-02-18T06:33:27;95652.75;;;6.41;100.00
6030;BME280;3043;42.682;23.376;2023-02-18T06:36:00;95657.06;;;6.66;100.00
6030;BME280;3043;42.682;23.376;2023-02-18T06:38:26;95665.63;;;6.45;100.00
6030;BME280;3043;42.682;23.376;2023-02-18T06:40:52;95667.34;;;6.84;100.00
6030;BME280;3043;42.682;23.376;2023-02-18T06:43:18;95665.63;;;6.60;100.00
6030;BME280;3043;42.682;23.376;2023-02-18T06:45:43;95664.75;;;6.54;100.00
6030;BME280;3043;42.682;23.376;2023-02-18T06:48:10;95660.50;;;6.71;100.00
6030;BME280;3043;42.682;23.376;2023-02-18T06:50:35;95665.66;;;6.83;100.00
6030;BME280;3043;42.682;23.376;2023-02-18T06:53:01;95664.78;;;7.14;100.00
6030;BME280;3043;42.682;23.376;2023-02-18T06:55:26;95661.34;;;7.24;100.00
6030;BME280;3043;42.682;23.376;2023-02-18T06:57:52;95662.19;;;7.34;100.00
6030;BME280;3043;42.682;23.376;2023-02-18T07:00:17;95668.19;;;7.22;100.00
6030;BME280;3043;42.682;23.376;2023-02-18T07:02:43;95666.47;;;7.33;100.00
6030;BME280;3043;42.682;23.376;2023-02-18T07:05:08;95666.44;;;7.45;100.00
6030;BME280;3043;42.682;23.376;2023-02-18T07:07:34;95660.38;;;7.72;100.00
6030;BME280;3043;42.682;23.376;2023-02-18T07:09:59;95665.25;;;8.42;100.00
6030;BME280;3043;42.682;23.376;2023-02-18T07:12:25;95662.34;;;8.90;98.38
6030;BME280;3043;42.682;23.376;2023-02-18T07:14:50;95653.25;;;9.46;93.75
6030;BME280;3043;42.682;23.376;2023-02-18T07:17:16;95655.59;;;9.68;87.86
6030;BME280;3043;42.682;23.376;2023-02-18T07:19:41;95649.41;;;9.83;86.66
6030;BME280;3043;42.682;23.376;2023-02-18T07:22:07;95645.59;;;10.14;80.76
6030;BME280;3043;42.682;23.376;2023-02-18T07:24:32;95637.94;;;10.08;80.13
6030;BME280;3043;42.682;23.376;2023-02-18T07:26:58;95638.44;;;10.34;77.44
6030;BME280;3043;42.682;23.376;2023-02-18T07:29:23;95642.16;;;10.12;77.34
6030;BME280;3043;42.682;23.376;2023-02-18T07:31:48;95645.66;;;10.11;79.64
6030;BME280;3043;42.682;23.376;2023-02-18T07:34:14;95664.56;;;10.78;77.82
6030;BME280;3043;42.682;23.376;2023-02-18T07:36:39;95654.69;;;11.04;74.64
6030;BME280;3043;42.682;23.376;2023-02-18T07:39:05;95657.97;;;11.12;73.54
6030;BME280;3043;42.682;23.376;2023-02-18T07:41:30;95665.09;;;11.00;73.94
6030;BME280;3043;42.682;23.376;2023-02-18T07:43:56;95665.13;;;10.98;73.84
6030;BME280;3043;42.682;23.376;2023-02-18T07:46:21;95652.19;;;10.39;77.14
6030;BME280;3043;42.682;23.376;2023-02-18T07:48:46;95657.16;;;10.54;78.10
6030;BME280;3043;42.682;23.376;2023-02-18T07:51:12;95656.97;;;10.66;77.46
6030;BME280;3043;42.682;23.376;2023-02-18T07:53:38;95657.16;;;10.54;76.80
6030;BME280;3043;42.682;23.376;2023-02-18T07:56:05;95653.56;;;10.64;77.21
6030;BME280;3043;42.682;23.376;2023-02-18T07:58:33;95657.56;;;10.85;74.47
6030;BME280;3043;42.682;23.376;2023-02-18T08:01:02;95665.81;;;11.08;73.43
6030;BME280;3043;42.682;23.376;2023-02-18T08:03:30;95664.88;;;11.13;74.08
6030;BME280;3043;42.682;23.376;2023-02-18T08:05:56;95667.81;;;11.45;73.00
6030;BME280;3043;42.682;23.376;2023-02-18T08:08:24;95661.38;;;12.11;72.16
6030;BME280;3043;42.682;23.376;2023-02-18T08:10:52;95662.56;;;13.16;68.99
6030;BME280;3043;42.682;23.376;2023-02-18T08:13:18;95657.22;;;14.19;61.62
6030;BME280;3043;42.682;23.376;2023-02-18T08:15:43;95645.31;;;15.53;55.68
6030;BME280;3043;42.682;23.376;2023-02-18T08:18:15;95636.19;;;16.39;47.61
6030;BME280;3043;42.682;23.376;2023-02-18T08:20:41;95643.38;;;16.57;44.51
6030;BME280;3043;42.682;23.376;2023-02-18T08:23:06;95644.47;;;16.27;44.17
6030;BME280;3043;42.682;23.376;2023-02-18T08:25:32;95645.72;;;16.64;44.29
6030;BME280;3043;42.682;23.376;2023-02-18T08:27:58;95645.28;;;16.98;44.03
6030;BME280;3043;42.682;23.376;2023-02-18T08:30:24;95641.00;;;17.17;42.36
6030;BME280;3043;42.682;23.376;2023-02-18T08:32:50;95650.81;;;17.55;40.95
6030;BME280;3043;42.682;23.376;2023-02-18T08:35:16;95652.81;;;17.05;40.72
6030;BME280;3043;42.682;23.376;2023-02-18T08:37:41;95649.38;;;16.82;40.52
6030;BME280;3043;42.682;23.376;2023-02-18T08:40:07;95638.06;;;16.35;41.20
6030;BME280;3043;42.682;23.376;2023-02-18T08:42:33;95627.75;;;16.08;41.47
6030;BME280;3043;42.682;23.376;2023-02-18T08:44:59;95627.16;;;15.50;42.39
6030;BME280;3043;42.682;23.376;2023-02-18T08:47:24;95636.84;;;14.93;43.34
6030;BME280;3043;42.682;23.376;2023-02-18T08:49:52;95632.84;;;14.82;44.14
6030;BME280;3043;42.682;23.376;2023-02-18T08:52:18;95637.22;;;14.52;44.83
6030;BME280;3043;42.682;23.376;2023-02-18T08:54:43;95648.59;;;14.17;46.05
6030;BME280;3043;42.682;23.376;2023-02-18T08:57:09;95652.34;;;13.77;47.17
6030;BME280;3043;42.682;23.376;2023-02-18T08:59:34;95632.31;;;14.11;46.93
6030;BME280;3043;42.682;23.376;2023-02-18T09:02:00;95637.69;;;14.05;47.00
6030;BME280;3043;42.682;23.376;2023-02-18T09:04:25;95640.47;;;13.99;47.66
6030;BME280;3043;42.682;23.376;2023-02-18T09:06:51;95635.31;;;13.97;48.17
6030;BME280;3043;42.682;23.376;2023-02-18T09:09:17;95633.75;;;13.90;47.81
6030;BME280;3043;42.682;23.376;2023-02-18T09:11:43;95643.16;;;13.96;48.24
6030;BME280;3043;42.682;23.376;2023-02-18T09:14:08;95633.63;;;14.27;48.14
6030;BME280;3043;42.682;23.376;2023-02-18T09:16:33;95631.97;;;14.81;47.40
6030;BME280;3043;42.682;23.376;2023-02-18T09:18:59;95629.00;;;15.19;46.40
6030;BME280;3043;42.682;23.376;2023-02-18T09:21:25;95634.56;;;15.62;44.63
6030;BME280;3043;42.682;23.376;2023-02-18T09:23:51;95644.50;;;15.77;44.04
6030;BME280;3043;42.682;23.376;2023-02-18T09:26:19;95634.97;;;16.01;43.70
6030;BME280;3043;42.682;23.376;2023-02-18T09:28:50;95632.97;;;16.08;44.17
6030;BME280;3043;42.682;23.376;2023-02-18T09:31:18;95626.03;;;16.31;43.38
6030;BME280;3043;42.682;23.376;2023-02-18T09:33:50;95612.25;;;16.95;42.09
6030;BME280;3043;42.682;23.376;2023-02-18T09:36:17;95616.25;;;17.25;42.09
6030;BME280;3043;42.682;23.376;2023-02-18T09:38:43;95614.06;;;18.18;40.75
6030;BME280;3043;42.682;23.376;2023-02-18T09:46:43;95607.81;;;19.68;36.81
6030;BME280;3043;42.682;23.376;2023-02-18T09:49:20;95615.56;;;20.05;36.00
6030;BME280;3043;42.682;23.376;2023-02-18T09:51:47;95619.13;;;20.21;35.34
6030;BME280;3043;42.682;23.376;2023-02-18T09:54:14;95615.88;;;19.99;35.27
6030;BME280;3043;42.682;23.376;2023-02-18T09:56:41;95619.88;;;19.89;34.87
6030;BME280;3043;42.682;23.376;2023-02-18T09:59:12;95617.28;;;19.00;36.25
6030;BME280;3043;42.682;23.376;2023-02-18T10:01:40;95612.03;;;19.00;36.51
6030;BME280;3043;42.682;23.376;2023-02-18T10:04:27;95607.47;;;18.85;36.45
6030;BME280;3043;42.682;23.376;2023-02-18T10:06:55;95597.69;;;19.07;36.62
6030;BME280;3043;42.682;23.376;2023-02-18T10:09:26;95591.97;;;19.16;36.78
6030;BME280;3043;42.682;23.376;2023-02-18T10:12:00;95590.38;;;19.67;36.73
6030;BME280;3043;42.682;23.376;2023-02-18T10:14:27;95577.19;;;20.35;35.98
6030;BME280;3043;42.682;23.376;2023-02-18T10:16:54;95575.56;;;20.80;34.45
6030;BME280;3043;42.682;23.376;2023-02-18T10:19:37;95581.75;;;21.26;33.82
6030;BME280;3043;42.682;23.376;2023-02-18T10:22:07;95582.09;;;21.81;32.99
6030;BME280;3043;42.682;23.376;2023-02-18T10:24:43;95589.19;;;22.66;32.24
6030;BME280;3043;42.682;23.376;2023-02-18T10:27:17;95581.28;;;23.21;31.03
6030;BME280;3043;42.682;23.376;2023-02-18T10:29:45;95578.63;;;23.35;30.68
6030;BME280;3043;42.682;23.376;2023-02-18T10:32:26;95562.72;;;23.88;29.50
6030;BME280;3043;42.682;23.376;2023-02-18T10:35:05;95567.50;;;23.30;29.71
6030;BME280;3043;42.682;23.376;2023-02-18T10:46:04;95553.63;;;23.92;28.67
6030;BME280;3043;42.682;23.376;2023-02-18T10:51:32;95531.13;;;23.99;28.74
6030;BME280;3043;42.682;23.376;2023-02-18T10:53:59;95525.50;;;23.91;28.22
6030;BME280;3043;42.682;23.376;2023-02-18T10:56:46;95531.09;;;23.47;28.33
6030;BME280;3043;42.682;23.376;2023-02-18T10:59:23;95527.38;;;23.89;28.50
6030;BME280;3043;42.682;23.376;2023-02-18T11:01:58;95519.09;;;23.56;27.81
6030;BME280;3043;42.682;23.376;2023-02-18T11:04:34;95521.13;;;23.65;27.54
6030;BME280;3043;42.682;23.376;2023-02-18T11:07:07;95518.91;;;23.32;27.47
6030;BME280;3043;42.682;23.376;2023-02-18T11:09:40;95515.50;;;23.04;27.69
6030;BME280;3043;42.682;23.376;2023-02-18T11:12:16;95503.13;;;23.04;28.67
6030;BME280;3043;42.682;23.376;2023-02-18T11:14:46;95503.16;;;23.31;28.99
6030;BME280;3043;42.682;23.376;2023-02-18T11:17:26;95492.59;;;23.31;27.79
6030;BME280;3043;42.682;23.376;2023-02-18T11:19:54;95488.63;;;22.70;28.03
6030;BME280;3043;42.682;23.376;2023-02-18T11:22:23;95471.88;;;22.15;28.21
6030;BME280;3043;42.682;23.376;2023-02-18T11:25:01;95476.63;;;21.67;28.35
6030;BME280;3043;42.682;23.376;2023-02-18T11:27:54;95462.31;;;20.51;29.56
6030;BME280;3043;42.682;23.376;2023-02-18T11:30:23;95459.66;;;19.72;30.44
6030;BME280;3043;42.682;23.376;2023-02-18T11:32:53;95454.88;;;19.11;31.01
6030;BME280;3043;42.682;23.376;2023-02-18T11:35:23;95451.31;;;18.78;31.45
6030;BME280;3043;42.682;23.376;2023-02-18T11:37:50;95458.72;;;18.87;31.67
6030;BME280;3043;42.682;23.376;2023-02-18T11:40:35;95454.13;;;18.92;31.96
6030;BME280;3043;42.682;23.376;2023-02-18T11:43:10;95452.31;;;19.28;31.43
6030;BME280;3043;42.682;23.376;2023-02-18T11:45:36;95446.56;;;19.20;31.54
6030;BME280;3043;42.682;23.376;2023-02-18T11:50:40;95434.66;;;19.48;31.81
6030;BME280;3043;42.682;23.376;2023-02-18T11:53:26;95431.59;;;20.05;31.66
6030;BME280;3043;42.682;23.376;2023-02-18T11:56:01;95425.19;;;20.26;31.11
6030;BME280;3043;42.682;23.376;2023-02-18T11:58:35;95430.94;;;20.48;30.80
6030;BME280;3043;42.682;23.376;2023-02-18T12:01:07;95421.78;;;20.24;31.63
6030;BME280;3043;42.682;23.376;2023-02-18T12:03:58;95397.09;;;20.11;31.85
6030;BME280;3043;42.682;23.376;2023-02-18T12:06:29;95389.91;;;20.30;31.74
6030;BME280;3043;42.682;23.376;2023-02-18T12:09:04;95387.69;;;20.38;31.93
6030;BME280;3043;42.682;23.376;2023-02-18T12:11:41;95387.53;;;20.10;32.05
6030;BME280;3043;42.682;23.376;2023-02-18T12:14:19;95378.38;;;20.17;32.22
6030;BME280;3043;42.682;23.376;2023-02-18T12:20:24;95386.81;;;19.91;33.18
6030;BME280;3043;42.682;23.376;2023-02-18T12:31:03;95367.81;;;19.37;33.89
6030;BME280;3043;42.682;23.376;2023-02-18T12:34:00;95377.72;;;18.98;34.34
6030;BME280;3043;42.682;23.376;2023-02-18T12:45:24;95358.59;;;18.62;35.66
6030;BME280;3043;42.682;23.376;2023-02-18T12:50:27;95353.81;;;19.04;35.70
6030;BME280;3043;42.682;23.376;2023-02-18T13:04:25;95346.25;;;19.48;34.77
6030;BME280;3043;42.682;23.376;2023-02-18T13:07:06;95344.59;;;19.63;34.57
6030;BME280;3043;42.682;23.376;2023-02-18T13:09:47;95348.25;;;19.76;34.05
6030;BME280;3043;42.682;23.376;2023-02-18T13:15:15;95341.19;;;19.61;34.29
6030;BME280;3043;42.682;23.376;2023-02-18T13:17:43;95340.69;;;19.70;33.75
6030;BME280;3043;42.682;23.376;2023-02-18T13:20:31;95345.63;;;19.76;33.41
6030;BME280;3043;42.682;23.376;2023-02-18T13:22:59;95345.63;;;19.76;33.31
6030;BME280;3043;42.682;23.376;2023-02-18T13:25:26;95336.94;;;19.42;33.96
6030;BME280;3043;42.682;23.376;2023-02-18T13:34:30;95346.66;;;19.23;35.10
6030;BME280;3043;42.682;23.376;2023-02-18T13:37:06;95340.81;;;19.18;35.49
6030;BME280;3043;42.682;23.376;2023-02-18T13:39:35;95345.31;;;18.82;36.13
6030;BME280;3043;42.682;23.376;2023-02-18T13:47:42;95339.84;;;18.17;37.54
6030;BME280;3043;42.682;23.376;2023-02-18T13:58:04;95337.53;;;17.37;38.83
6030;BME280;3043;42.682;23.376;2023-02-18T14:00:39;95338.97;;;17.44;39.09
6030;BME280;3043;42.682;23.376;2023-02-18T14:06:31;95332.34;;;17.35;39.24
6030;BME280;3043;42.682;23.376;2023-02-18T14:11:56;95334.47;;;17.09;39.54
6030;BME280;3043;42.682;23.376;2023-02-18T14:22:49;95344.78;;;16.72;40.32
6030;BME280;3043;42.682;23.376;2023-02-18T14:25:33;95336.69;;;16.58;40.70
6030;BME280;3043;42.682;23.376;2023-02-18T14:28:02;95328.34;;;16.50;40.92
6030;BME280;3043;42.682;23.376;2023-02-18T14:30:37;95337.25;;;16.23;41.40
6030;BME280;3043;42.682;23.376;2023-02-18T14:33:04;95346.69;;;16.27;41.73
6030;BME280;3043;42.682;23.376;2023-02-18T14:46:23;95338.56;;;16.13;42.31
6030;BME280;3043;42.682;23.376;2023-02-18T14:51:34;95344.88;;;15.85;43.16
6030;BME280;3043;42.682;23.376;2023-02-18T14:54:04;95331.53;;;15.93;43.15
6030;BME280;3043;42.682;23.376;2023-02-18T14:56:31;95328.22;;;15.66;43.69
6030;BME280;3043;42.682;23.376;2023-02-18T14:59:03;95325.66;;;15.65;44.04
6030;BME280;3043;42.682;23.376;2023-02-18T15:01:32;95320.22;;;15.71;43.99
6030;BME280;3043;42.682;23.376;2023-02-18T15:04:00;95318.88;;;15.61;44.34
6030;BME280;3043;42.682;23.376;2023-02-18T15:06:32;95319.44;;;15.69;44.51
6030;BME280;3043;42.682;23.376;2023-02-18T15:08:59;95322.03;;;15.47;44.71
6030;BME280;3043;42.682;23.376;2023-02-18T15:11:47;95319.28;;;15.27;45.44
6030;BME280;3043;42.682;23.376;2023-02-18T15:14:17;95319.91;;;15.34;45.58
6030;BME280;3043;42.682;23.376;2023-02-18T15:16:44;95324.38;;;15.30;45.63
6030;BME280;3043;42.682;23.376;2023-02-18T15:19:15;95324.72;;;15.21;45.96
6030;BME280;3043;42.682;23.376;2023-02-18T15:21:49;95319.16;;;15.07;46.17
6030;BME280;3043;42.682;23.376;2023-02-18T15:24:45;95314.97;;;15.03;46.46
6030;BME280;3043;42.682;23.376;2023-02-18T15:27:11;95308.81;;;14.81;47.22
6030;BME280;3043;42.682;23.376;2023-02-18T15:29:38;95313.53;;;14.72;47.53
6030;BME280;3043;42.682;23.376;2023-02-18T15:32:21;95325.84;;;14.67;47.93
6030;BME280;3043;42.682;23.376;2023-02-18T15:34:50;95311.97;;;14.66;48.09
6030;BME280;3043;42.682;23.376;2023-02-18T15:37:17;95310.44;;;14.61;48.40
6030;BME280;3043;42.682;23.376;2023-02-18T15:39:43;95303.09;;;14.47;49.05
6030;BME280;3043;42.682;23.376;2023-02-18T15:42:22;95306.72;;;14.43;49.46
6030;BME280;3043;42.682;23.376;2023-02-18T15:44:50;95308.47;;;14.43;49.30
6030;BME280;3043;42.682;23.376;2023-02-18T15:47:17;95293.94;;;14.36;49.51
6030;BME280;3043;42.682;23.376;2023-02-18T15:49:50;95302.94;;;14.27;49.92
6030;BME280;3043;42.682;23.376;2023-02-18T15:52:23;95295.22;;;14.24;50.43
6030;BME280;3043;42.682;23.376;2023-02-18T15:54:49;95298.31;;;14.09;50.99